Latest Coastal Weather Observations for Shark Bay Airport

IDW60701

Issued at 5:52 pm WST Tuesday 24 May 2016 (issued every 10 minutes, with the page automatically refreshed every 10 minutes)

About coastal observations | Map of coastal stations | Coastal observations for WA | Marine services | Other Formats
Station Details ID: 006105 Name: SHARK BAY AIRPORT Lat: -25.89 Lon: 113.58 Height: 33.8 m
Data from the previous 72 hours. | See also: Recent months at Shark Bay Airport
Date/Time
WST
Temp

°C
Wind Pressure Rain
since 9am
mm
Weather Cloud Vis
km
Sea
Height
m
Swell
Dir
 
Speed
knots
Gust
knots
hPa Trend Height
m
Period
s
Dir
24/05:30pm 21.4 NW 13 17 1011.1 - 0.0 - - - - - - -
24/05:00pm 21.6 NW 12 18 1011.1 - 0.0 - - - - - - -
24/04:30pm 22.3 NW 13 20 1011.1 - 0.0 - - - - - - -
24/04:00pm 22.8 NW 15 20 1011.1 - 0.0 - - - - - - -
24/03:30pm 23.0 NW 15 23 1011.0 - 0.0 - - - - - - -
24/03:00pm 23.8 NW 17 24 1010.9 - 0.0 - - - - - - -
24/02:30pm 24.5 NW 15 21 1010.8 - 0.0 - - - - - - -
24/02:00pm 24.3 NW 17 24 1010.9 - 0.0 - - - - - - -
24/01:30pm 24.4 NNW 18 23 1011.1 - 0.0 - - - - - - -
24/01:00pm 24.9 NNW 15 22 1011.3 - 0.0 - - - - - - -
24/12:30pm 24.9 NW 16 22 1011.7 - 0.0 - - - - - - -
24/12:00pm 25.3 NW 16 21 1012.2 - 0.0 - - - - - - -
24/11:30am 24.9 NW 16 21 1012.4 - 0.0 - - - - - - -
24/11:00am 23.8 NW 13 18 1012.8 - 0.0 - - - - - - -
24/10:30am 23.1 NW 14 19 1013.1 - 0.0 - - - - - - -
24/10:00am 23.4 NW 13 19 1013.1 - 0.0 - - - - - - -
24/09:30am 22.9 NW 13 19 1013.0 - 0.0 - - - - - - -
24/09:00am 23.1 NW 15 19 1012.8 - 0.0 - - - - - - -
24/08:30am 22.9 NW 10 13 1012.8 - 0.0 - - - - - - -
24/08:00am 19.9 N 6 7 1012.5 - 0.0 - - - - - - -
24/07:30am 18.8 N 5 6 1012.6 - 0.0 - - - - - - -
24/07:00am 18.1 N 4 5 1012.2 - 0.0 - - - - - - -
24/06:30am 18.3 NNW 5 7 1012.2 - 0.0 - - - - - - -
24/06:00am 17.6 NW 5 7 1012.1 - 0.0 - - - - - - -
24/05:30am 17.4 NW 6 6 1012.0 - 0.0 - - - - - - -
24/05:00am 17.5 NNW 4 5 1011.8 - 0.0 - - - - - - -
24/04:30am 17.5 NNW 6 7 1011.9 - 0.0 - - - - - - -
24/04:00am 17.0 NW 6 7 1012.0 - 0.0 - - - - - - -
24/03:30am 16.6 NNW 7 8 1012.4 - 0.0 - - - - - - -
24/03:00am 15.8 NNW 7 8 1012.2 - 0.0 - - - - - - -
24/02:30am 15.7 NW 7 8 1012.3 - 0.0 - - - - - - -
24/02:00am 15.3 NW 7 7 1012.6 - 0.0 - - - - - - -
24/01:30am 15.3 NW 6 7 1012.6 - 0.0 - - - - - - -
24/01:00am 15.4 NW 7 8 1012.9 - 0.0 - - - - - - -
24/12:30am 14.8 NNW 6 6 1013.1 - 0.0 - - - - - - -
24/12:00am 15.2 NW 7 8 1013.4 - 0.0 - - - - - - -
 
Date/Time
WST
Temp

°C
Wind Pressure Rain
since 9am
mm
Weather Cloud Vis
km
Sea
Height
m
Swell
Dir
 
Speed
knots
Gust
knots
hPa Trend Height
m
Period
s
Dir
23/11:30pm 15.1 WNW 7 8 1013.7 - 0.0 - - - - - - -
23/11:00pm 15.0 WNW 8 9 1013.9 - 0.0 - - - - - - -
23/10:30pm 15.2 NW 7 8 1014.0 - 0.0 - - - - - - -
23/10:00pm 15.5 NW 7 8 1014.0 - 0.0 - - - - - - -
23/09:30pm 15.6 WNW 7 8 1014.2 - 0.0 - - - - - - -
23/09:00pm 15.6 WNW 6 7 1014.3 - 0.0 - - - - - - -
23/08:30pm 15.9 WNW 8 8 1014.2 - 0.0 - - - - - - -
23/08:00pm 16.1 WNW 7 8 1014.4 - 0.0 - - - - - - -
23/07:30pm 16.1 WNW 8 9 1014.4 - 0.0 - - - - - - -
23/07:00pm 16.2 WNW 6 7 1014.2 - 0.0 - - - - - - -
23/06:30pm 16.9 NW 6 7 1013.9 - 0.0 - - - - - - -
23/06:00pm 18.2 NW 6 7 1013.5 - 0.0 - - - - - - -
23/05:30pm 20.0 W 8 11 1013.6 - 0.0 - - - - - - -
23/05:00pm 21.0 WSW 7 9 1013.3 - 0.0 - - - - - - -
23/04:30pm 22.7 W 8 10 1013.0 - 0.0 - - - - - - -
23/04:00pm 25.0 WNW 5 8 1012.8 - 0.0 - - - - - - -
23/03:30pm 25.2 WNW 5 9 1012.9 - 0.0 - - - - - - -
23/03:00pm 24.4 W 9 11 1013.5 - 0.0 - - - - - - -
23/02:30pm 25.8 WNW 6 9 1013.7 - 0.0 - - - - - - -
23/02:00pm 25.1 W 8 11 1014.3 - 0.0 - - - - - - -
23/01:30pm 25.4 NE 5 9 1014.9 - 0.0 - - - - - - -
23/01:00pm 24.7 NNE 7 10 1015.3 - 0.0 - - - - - - -
23/12:30pm 24.1 ENE 6 9 1015.8 - 0.0 - - - - - - -
23/12:00pm 23.5 NE 7 11 1016.3 - 0.0 - - - - - - -
23/11:30am 22.2 ENE 9 13 1016.5 - 0.0 - - - - - - -
23/11:00am 21.2 ENE 9 13 1017.1 - 0.0 - - - - - - -
23/10:30am 20.6 ENE 8 13 1017.9 - 0.0 - - - - - - -
23/10:00am 19.7 ENE 10 14 1018.0 - 0.0 - - - - - - -
23/09:30am 18.8 E 10 13 1018.3 - 0.0 - - - - - - -
23/09:00am 17.8 E 11 15 1018.6 - 0.0 - - - - - - -
23/08:30am 16.3 E 8 12 1018.6 - 0.0 - - - - - - -
23/08:00am 13.3 E 7 9 1018.6 - 0.0 - - - - - - -
23/07:30am 9.2 ESE 8 9 1018.5 - 0.0 - - - - - - -
23/07:00am 9.1 SE 8 8 1018.6 - 0.0 - - - - - - -
23/06:30am 9.7 SE 7 8 1018.7 - 0.0 - - - - - - -
23/06:00am 9.8 ESE 7 7 1018.4 - 0.0 - - - - - - -
23/05:30am 9.8 ESE 7 8 1018.2 - 0.0 - - - - - - -
23/05:00am 9.9 ESE 7 8 1018.3 - 0.0 - - - - - - -
23/04:30am 9.5 ESE 8 8 1018.2 - 0.0 - - - - - - -
23/04:00am 10.7 SE 7 8 1018.5 - 0.0 - - - - - - -
23/03:30am 9.8 ESE 8 9 1018.6 - 0.0 - - - - - - -
23/03:00am 10.1 ESE 8 8 1019.0 - 0.0 - - - - - - -
23/02:30am 10.9 ESE 8 9 1019.2 - 0.0 - - - - - - -
23/02:00am 11.7 ESE 8 10 1019.4 - 0.0 - - - - - - -
23/01:30am 10.8 ESE 9 9 1019.6 - 0.0 - - - - - - -
23/01:00am 11.0 ESE 8 9 1020.0 - 0.0 - - - - - - -
23/12:30am 11.1 SE 8 8 1020.4 - 0.0 - - - - - - -
23/12:00am 11.3 SE 7 8 1020.5 - 0.0 - - - - - - -
 
Date/Time
WST
Temp

°C
Wind Pressure Rain
since 9am
mm
Weather Cloud Vis
km
Sea
Height
m
Swell
Dir
 
Speed
knots
Gust
knots
hPa Trend Height
m
Period
s
Dir
22/11:30pm 11.7 SSE 7 8 1020.6 - 0.0 - - - - - - -
22/11:00pm 12.7 SSE 7 7 1020.4 - 0.0 - - - - - - -
22/10:30pm 13.0 SSE 6 7 1020.1 - 0.0 - - - - - - -
22/10:00pm 13.8 SSE 7 8 1020.2 - 0.0 - - - - - - -
22/09:30pm 14.6 SSE 6 8 1020.3 - 0.0 - - - - - - -
22/09:00pm 15.0 SSE 8 10 1019.7 - 0.0 - - - - - - -
22/08:30pm 14.9 SSE 8 9 1019.5 - 0.0 - - - - - - -
22/08:00pm 15.4 S 7 8 1019.5 - 0.0 - - - - - - -
22/07:30pm 15.4 S 7 8 1019.3 - 0.0 - - - - - - -
22/07:00pm 16.2 S 7 9 1019.0 - 0.0 - - - - - - -
22/06:30pm 16.7 SSE 6 7 1018.2 - 0.0 - - - - - - -
22/06:00pm 18.1 SSE 7 9 1018.1 - 0.0 - - - - - - -
22/05:30pm 19.4 SSE 8 11 1018.6 - 0.0 - - - - - - -
22/05:00pm 20.3 SE 9 13 1018.6 - 0.0 - - - - - - -
22/04:30pm 20.9 SE 9 13 1019.1 - 0.0 - - - - - - -
22/04:00pm 21.1 ESE 10 15 1018.7 - 0.0 - - - - - - -
22/03:30pm 21.4 SE 10 15 1018.7 - 0.0 - - - - - - -
22/03:00pm 21.7 ESE 10 15 1018.8 - 0.0 - - - - - - -
22/02:30pm 21.3 SE 9 15 1019.0 - 0.0 - - - - - - -
22/02:00pm 21.2 SE 10 17 1019.3 - 0.0 - - - - - - -
22/01:30pm 21.2 SE 9 17 1019.2 - 0.0 - - - - - - -
22/01:00pm 21.2 SSE 10 16 1019.3 - 0.0 - - - - - - -
22/12:30pm 21.0 ESE 11 16 1019.6 - 0.0 - - - - - - -
22/12:00pm 20.8 ESE 11 17 1019.9 - 0.0 - - - - - - -
22/11:30am 20.4 ESE 11 17 1020.2 - 0.0 - - - - - - -
22/11:00am 20.3 ESE 11 16 1020.4 - 0.0 - - - - - - -
22/10:30am 20.2 E 10 14 1020.7 - 0.0 - - - - - - -
22/10:00am 19.6 E 10 13 1020.6 - 0.0 - - - - - - -
22/09:30am 19.3 ESE 11 15 1020.5 - 0.0 - - - - - - -
22/09:00am 18.1 ESE 13 18 1020.1 - - - - - - - - -
22/08:30am 17.5 E 10 14 1019.8 - - - - - - - - -
22/08:00am 16.7 E 7 8 1019.4 - - - - - - - - -
22/07:30am 15.5 E 6 7 1019.0 - - - - - - - - -
22/07:00am 15.4 ESE 6 7 1018.9 - 1.2 - - - - - - -
22/06:30am 15.5 E 5 6 1018.4 - 1.2 - - - - - - -
22/06:00am 15.4 E 7 8 1017.9 - 1.2 - - - - - - -
22/05:30am 15.5 ESE 7 8 1017.7 - 1.2 - - - - - - -
22/05:00am 15.8 SE 7 10 1017.2 - 1.2 - - - - - - -
22/04:30am 15.2 SE 5 6 1017.1 - 1.2 - - - - - - -
22/04:00am 15.6 SE 7 9 1017.0 - 1.2 - - - - - - -
22/03:30am 15.0 SE 8 9 1016.8 - 1.2 - - - - - - -
22/03:00am 14.1 SE 4 5 1016.7 - 1.2 - - - - - - -
22/02:30am 14.1 ESE 5 5 1016.5 - 1.2 - - - - - - -
22/02:00am 14.6 SE 5 6 1016.5 - 1.2 - - - - - - -
22/01:30am 15.3 SE 6 9 1016.6 - 1.2 - - - - - - -
22/01:00am 15.2 SSE 5 5 1016.6 - 1.2 - - - - - - -
22/12:30am 15.8 SE 3 4 1016.6 - 1.2 - - - - - - -
22/12:00am 16.0 SSE 4 5 1016.5 - 1.2 - - - - - - -
 
Date/Time
WST
Temp

°C
Wind Pressure Rain
since 9am
mm
Weather Cloud Vis
km
Sea
Height
m
Swell
Dir
 
Speed
knots
Gust
knots
hPa Trend Height
m
Period
s
Dir
21/11:30pm 16.3 S 7 10 1016.4 - 1.2 - - - - - - -
21/11:00pm 16.3 S 6 7 1016.3 - 1.2 - - - - - - -
21/10:30pm 17.1 S 9 12 1016.1 - 1.2 - - - - - - -
21/10:00pm 17.2 SSW 12 16 1016.0 - 1.2 - - - - - - -
21/09:30pm 17.3 S 9 11 1015.6 - 1.2 - - - - - - -
21/09:00pm 17.8 S 10 17 1015.1 - 1.2 - - - - - - -
21/08:30pm 18.1 SSW 10 12 1014.6 - 1.2 - - - - - - -
21/08:00pm 17.9 SSW 7 9 1014.3 - 1.2 - - - - - - -
21/07:30pm 18.1 SSW 9 15 1014.1 - 1.2 - - - - - - -
21/07:00pm 18.8 SSW 11 18 1013.8 - 1.2 - - - - - - -
21/06:30pm 19.3 SW 12 17 1013.3 - 1.2 - - - - - - -
21/06:00pm 19.3 SW 13 17 1012.9 - 1.2 - - - - - - -

Other Formats:

Comma delimited format used in spreadsheet applications
http://www.bom.gov.au/fwo/IDW60701/IDW60701.95402.axf

JavaScript Object Notation format (JSON) in row-major order
http://www.bom.gov.au/fwo/IDW60701/IDW60701.95402.json